^^
Station Historical Data
Daily Summary for March 15, 2017 Units:  Metric    English   Both
« Previous Day
Next Day »
Daily Weekly Monthly Yearly Custom
  High: Low: Average:
Temperature: 29.4 °C 20.3 °C 26.8 °C
Dew Point: 9 °C -4.6 °C -0.3 °C
Humidity: 48% 11% 18%
Wind Speed: 24.1km/h 6.4km/h 15km/h
Wind Gust: 30.6km/h - -
Wind- - SSW
Pressure: 1010.7 hPa 1008.4 hPa -
Precipitation: 0 mm    
Historical Graphs
 
 
Tabular Data for March 15, 2017
Time Temperature Dew Point Pressure Wind Wind Speed Wind Gust Humidity Rainfall Rate (Hourly) solar Conditions
13:14 27.1 °C 0.7 °C 1009.7 hPa South 14.3 km/h 19.3 km/h 18% 0 mm 904.0 W/m2
13:19 27.2 °C 0.8 °C 1009.7 hPa South 11.1 km/h 17.7 km/h 18% 0 mm 905.0 W/m2
13:22 27.5 °C 1.1 °C 1009.7 hPa South 11.1 km/h 17.7 km/h 18% 0 mm 900.0 W/m2
13:31 27.4 °C 0.2 °C 1009.7 hPa South 14.3 km/h 19.3 km/h 17% 0 mm 896.0 W/m2
14:02 28.7 °C -3.5 °C 1009 hPa SSW 17.7 km/h 22.5 km/h 12% 0 mm 868.0 W/m2
14:23 28.5 °C -3.7 °C 1009 hPa SSW 9.7 km/h 22.5 km/h 12% 0 mm 849.0 W/m2
14:32 28.8 °C -4.6 °C 1009 hPa SSW 17.7 km/h 22.5 km/h 11% 0 mm 828.0 W/m2
14:45 29.1 °C -3.2 °C 1009 hPa SSW 17.7 km/h 24.1 km/h 12% 0 mm 812.0 W/m2
14:59 29.3 °C -3.1 °C 1009 hPa SSW 6.4 km/h 24.1 km/h 12% 0 mm 782.0 W/m2
15:13 29.4 °C -3 °C 1008.7 hPa SSW 19.5 km/h 25.7 km/h 12% 0 mm 747.0 W/m2
15:18 29 °C -2.2 °C 1008.7 hPa SSW 11.1 km/h 20.9 km/h 13% 0 mm 724.0 W/m2
15:28 29.1 °C -3.2 °C 1008.7 hPa SW 22.7 km/h 30.6 km/h 12% 0 mm 698.0 W/m2
15:43 29.2 °C -2 °C 1008.4 hPa SSW 24.1 km/h 27.4 km/h 13% 0 mm 657.0 W/m2
15:58 29.2 °C -2 °C 1008.4 hPa South 19.5 km/h 29 km/h 13% 0 mm 613.0 W/m2
16:13 29.2 °C -3.1 °C 1008.4 hPa SSW 17.7 km/h 29 km/h 12% 0 mm 571.0 W/m2
16:36 29.2 °C -4.3 °C 1008.4 hPa South 14.3 km/h 24.1 km/h 11% 0 mm 520.0 W/m2
16:49 29.2 °C -2 °C 1008.4 hPa SSE 17.7 km/h 30.6 km/h 13% 0 mm 469.0 W/m2
17:02 28.9 °C -1.3 °C 1008.4 hPa South 20.9 km/h 25.7 km/h 14% 0 mm 415.0 W/m2
17:08 28.8 °C -0.4 °C 1008.4 hPa South 20.9 km/h 24.1 km/h 15% 0 mm 378.0 W/m2
17:24 28.7 °C -0.5 °C 1008.4 hPa South 17.7 km/h 25.7 km/h 15% 0 mm 345.0 W/m2
17:34 28.7 °C -1.4 °C 1008.4 hPa South 20.9 km/h 27.4 km/h 14% 0 mm 306.0 W/m2
17:41 28.5 °C -1.6 °C 1008.4 hPa South 19.5 km/h 25.7 km/h 14% 0 mm 269.0 W/m2
17:50 28.4 °C -1.7 °C 1008.4 hPa SSW 13 km/h 19.3 km/h 14% 0 mm 227.0 W/m2
19:24 25.9 °C -0.2 °C 1009 hPa SSE 17.7 km/h 24.1 km/h 18% 0 mm 0.0 W/m2
19:47 25.7 °C 0.3 °C 1009 hPa SSE 17.7 km/h 20.9 km/h 19% 0 mm 0.0 W/m2
19:54 25.4 °C 0.8 °C 1009 hPa South 14.3 km/h 22.5 km/h 20% 0 mm 0.0 W/m2
20:16 25.1 °C 1.2 °C 1009.4 hPa South 9.7 km/h 16.1 km/h 21% 0 mm 0.0 W/m2
20:25 24.6 °C 1.5 °C 1009.4 hPa SSW 11.1 km/h 14.5 km/h 22% 0 mm 0.0 W/m2
20:47 24.3 °C 1.8 °C 1009.4 hPa SSW 11.1 km/h 16.1 km/h 23% 0 mm 0.0 W/m2
21:01 24.1 °C 1.7 °C 1009.7 hPa SSW 14.3 km/h 17.7 km/h 23% 0 mm 0.0 W/m2
21:10 23.9 °C 1.5 °C 1010 hPa SSW 11.1 km/h 17.7 km/h 23% 0 mm 0.0 W/m2
21:31 23.7 °C 0.7 °C 1010 hPa SSW 13 km/h 14.5 km/h 22% 0 mm 0.0 W/m2
21:41 23.6 °C 0.6 °C 1010.4 hPa SW 7.9 km/h 14.5 km/h 22% 0 mm 0.0 W/m2
21:51 23.4 °C 0.5 °C 1010.4 hPa SW 11.1 km/h 14.5 km/h 22% 0 mm 0.0 W/m2
21:58 23.3 °C 2.7 °C 1010.4 hPa SSW 13 km/h 22.5 km/h 26% 0 mm 0.0 W/m2
23:53 20.4 °C 9 °C 1010.7 hPa SSW 11.1 km/h 11.3 km/h 48% 0 mm 0.0 W/m2
23:58 20.3 °C 8.9 °C 1010.7 hPa SSW 11.1 km/h 14.5 km/h 48% 0 mm 0.0 W/m2
Canyon Roadhouse, Fishriver Canyon, Namibia
Compliments of Weather Underground - 1.75 mb